sensor_id;sensor_type;location;lat;lon;timestamp;pressure;altitude;pressure_sealevel;temperature;humidity
32243;BME280;18731;42.830;24.390;2023-02-12T04:00:10;95389.25;;;-4.40;70.38
32243;BME280;18731;42.830;24.390;2023-02-12T04:02:36;95365.84;;;-4.46;69.91
32243;BME280;18731;42.830;24.390;2023-02-12T04:05:06;95388.72;;;-4.24;70.10
32243;BME280;18731;42.830;24.390;2023-02-12T04:07:34;95385.47;;;-4.19;69.66
32243;BME280;18731;42.830;24.390;2023-02-12T04:10:01;95381.44;;;-4.15;69.50
32243;BME280;18731;42.830;24.390;2023-02-12T04:12:39;95386.94;;;-4.05;69.65
32243;BME280;18731;42.830;24.390;2023-02-12T04:18:19;95383.06;;;-3.96;69.53
32243;BME280;18731;42.830;24.390;2023-02-12T04:23:49;95383.50;;;-3.80;69.68
32243;BME280;18731;42.830;24.390;2023-02-12T04:26:54;95392.22;;;-3.68;69.34
32243;BME280;18731;42.830;24.390;2023-02-12T04:29:38;95397.00;;;-3.65;68.99
32243;BME280;18731;42.830;24.390;2023-02-12T04:32:40;95389.75;;;-3.63;68.63
32243;BME280;18731;42.830;24.390;2023-02-12T04:38:09;95396.13;;;-3.59;69.00
32243;BME280;18731;42.830;24.390;2023-02-12T04:40:38;95393.66;;;-3.54;69.07
32243;BME280;18731;42.830;24.390;2023-02-12T04:43:05;95388.44;;;-3.54;68.69
32243;BME280;18731;42.830;24.390;2023-02-12T04:45:33;95383.94;;;-3.47;68.94
32243;BME280;18731;42.830;24.390;2023-02-12T04:48:00;95387.13;;;-3.45;68.80
32243;BME280;18731;42.830;24.390;2023-02-12T04:50:30;95392.50;;;-3.40;68.92
32243;BME280;18731;42.830;24.390;2023-02-12T04:53:02;95390.47;;;-3.38;68.89
32243;BME280;18731;42.830;24.390;2023-02-12T04:55:27;95391.03;;;-3.36;69.26
32243;BME280;18731;42.830;24.390;2023-02-12T04:57:53;95390.16;;;-3.30;69.19
32243;BME280;18731;42.830;24.390;2023-02-12T05:00:18;95370.75;;;-3.52;69.36
32243;BME280;18731;42.830;24.390;2023-02-12T05:02:44;95375.41;;;-3.54;69.82
32243;BME280;18731;42.830;24.390;2023-02-12T05:05:10;95391.69;;;-3.40;69.96
32243;BME280;18731;42.830;24.390;2023-02-12T05:07:35;95393.22;;;-3.33;69.38
32243;BME280;18731;42.830;24.390;2023-02-12T05:10:01;95383.34;;;-3.31;69.75
32243;BME280;18731;42.830;24.390;2023-02-12T05:12:27;95386.84;;;-3.37;69.40
32243;BME280;18731;42.830;24.390;2023-02-12T05:14:53;95370.25;;;-3.42;69.45
32243;BME280;18731;42.830;24.390;2023-02-12T05:17:21;95383.34;;;-3.31;69.97
32243;BME280;18731;42.830;24.390;2023-02-12T05:19:47;95375.69;;;-3.44;69.83
32243;BME280;18731;42.830;24.390;2023-02-12T05:22:12;95384.16;;;-3.30;70.01
32243;BME280;18731;42.830;24.390;2023-02-12T05:24:38;95391.19;;;-3.31;70.56
32243;BME280;18731;42.830;24.390;2023-02-12T05:27:04;95402.50;;;-3.18;70.08
32243;BME280;18731;42.830;24.390;2023-02-12T05:29:30;95394.53;;;-3.24;70.17
32243;BME280;18731;42.830;24.390;2023-02-12T05:31:56;95374.38;;;-3.35;70.50
32243;BME280;18731;42.830;24.390;2023-02-12T05:34:22;95384.94;;;-3.30;70.83
32243;BME280;18731;42.830;24.390;2023-02-12T05:36:47;95396.56;;;-3.26;70.96
32243;BME280;18731;42.830;24.390;2023-02-12T05:39:13;95397.72;;;-3.21;71.04
32243;BME280;18731;42.830;24.390;2023-02-12T05:41:38;95408.06;;;-3.15;71.04
32243;BME280;18731;42.830;24.390;2023-02-12T05:44:04;95402.84;;;-3.15;71.22
32243;BME280;18731;42.830;24.390;2023-02-12T05:46:31;95405.38;;;-3.08;71.67
32243;BME280;18731;42.830;24.390;2023-02-12T05:48:57;95406.88;;;-3.01;71.28
32243;BME280;18731;42.830;24.390;2023-02-12T05:51:24;95413.03;;;-2.95;71.01
32243;BME280;18731;42.830;24.390;2023-02-12T05:53:54;95418.53;;;-2.85;70.80
32243;BME280;18731;42.830;24.390;2023-02-12T05:56:23;95405.47;;;-2.85;71.28
32243;BME280;18731;42.830;24.390;2023-02-12T05:58:57;95419.34;;;-2.84;71.23
32243;BME280;18731;42.830;24.390;2023-02-12T06:01:29;95416.06;;;-2.80;71.38
32243;BME280;18731;42.830;24.390;2023-02-12T06:03:57;95418.81;;;-2.75;70.84
32243;BME280;18731;42.830;24.390;2023-02-12T06:06:29;95422.13;;;-2.68;71.15
32243;BME280;18731;42.830;24.390;2023-02-12T06:08:55;95416.59;;;-2.60;70.96
32243;BME280;18731;42.830;24.390;2023-02-12T06:11:22;95424.00;;;-2.56;71.03
32243;BME280;18731;42.830;24.390;2023-02-12T06:13:48;95420.41;;;-2.44;71.07
32243;BME280;18731;42.830;24.390;2023-02-12T06:16:23;95424.28;;;-2.35;70.75
32243;BME280;18731;42.830;24.390;2023-02-12T06:18:50;95429.75;;;-2.36;70.62
32243;BME280;18731;42.830;24.390;2023-02-12T06:21:17;95425.78;;;-2.27;70.90
32243;BME280;18731;42.830;24.390;2023-02-12T06:23:43;95431.59;;;-2.25;70.73
32243;BME280;18731;42.830;24.390;2023-02-12T06:26:09;95436.50;;;-2.17;70.31
32243;BME280;18731;42.830;24.390;2023-02-12T06:28:34;95416.47;;;-2.23;70.68
32243;BME280;18731;42.830;24.390;2023-02-12T06:31:00;95438.31;;;-2.06;70.68
32243;BME280;18731;42.830;24.390;2023-02-12T06:33:26;95420.34;;;-2.14;70.66
32243;BME280;18731;42.830;24.390;2023-02-12T06:35:52;95442.78;;;-1.95;70.54
32243;BME280;18731;42.830;24.390;2023-02-12T06:38:17;95446.09;;;-1.87;70.34
32243;BME280;18731;42.830;24.390;2023-02-12T06:40:43;95432.53;;;-1.84;70.02
32243;BME280;18731;42.830;24.390;2023-02-12T06:43:09;95442.78;;;-1.71;69.90
32243;BME280;18731;42.830;24.390;2023-02-12T06:45:34;95451.44;;;-1.71;69.97
32243;BME280;18731;42.830;24.390;2023-02-12T06:48:00;95456.09;;;-1.61;69.50
32243;BME280;18731;42.830;24.390;2023-02-12T06:50:27;95447.22;;;-1.60;69.88
32243;BME280;18731;42.830;24.390;2023-02-12T06:52:52;95460.31;;;-1.60;69.75
32243;BME280;18731;42.830;24.390;2023-02-12T06:55:18;95453.59;;;-1.56;69.68
32243;BME280;18731;42.830;24.390;2023-02-12T06:57:43;95424.47;;;-1.71;69.47
32243;BME280;18731;42.830;24.390;2023-02-12T07:00:10;95452.22;;;-1.47;69.28
32243;BME280;18731;42.830;24.390;2023-02-12T07:02:36;95447.34;;;-1.43;69.66
32243;BME280;18731;42.830;24.390;2023-02-12T07:05:01;95439.81;;;-1.40;69.72
32243;BME280;18731;42.830;24.390;2023-02-12T07:07:27;95459.50;;;-1.25;69.75
32243;BME280;18731;42.830;24.390;2023-02-12T07:09:53;95450.16;;;-1.21;70.07
32243;BME280;18731;42.830;24.390;2023-02-12T07:12:18;95445.16;;;-1.23;69.82
32243;BME280;18731;42.830;24.390;2023-02-12T07:14:44;95462.31;;;-1.04;69.58
32243;BME280;18731;42.830;24.390;2023-02-12T07:17:09;95459.00;;;-0.99;69.38
32243;BME280;18731;42.830;24.390;2023-02-12T07:19:35;95451.09;;;-0.87;69.53
32243;BME280;18731;42.830;24.390;2023-02-12T07:22:01;95459.50;;;-0.74;69.43
32243;BME280;18731;42.830;24.390;2023-02-12T07:24:27;95456.28;;;-0.64;69.11
32243;BME280;18731;42.830;24.390;2023-02-12T07:26:53;95442.47;;;-0.59;68.68
32243;BME280;18731;42.830;24.390;2023-02-12T07:29:19;95463.66;;;-0.33;68.40
32243;BME280;18731;42.830;24.390;2023-02-12T07:31:44;95448.56;;;-0.25;68.22
32243;BME280;18731;42.830;24.390;2023-02-12T07:34:10;95467.66;;;-0.13;67.75
32243;BME280;18731;42.830;24.390;2023-02-12T07:36:36;95475.63;;;-0.08;67.25
32243;BME280;18731;42.830;24.390;2023-02-12T07:39:02;95474.34;;;-0.06;67.12
32243;BME280;18731;42.830;24.390;2023-02-12T07:41:33;95469.59;;;-0.09;67.43
32243;BME280;18731;42.830;24.390;2023-02-12T07:44:02;95486.66;;;0.06;67.31
32243;BME280;18731;42.830;24.390;2023-02-12T07:46:36;95494.06;;;0.09;67.38
32243;BME280;18731;42.830;24.390;2023-02-12T07:49:04;95488.00;;;0.08;67.99
32243;BME280;18731;42.830;24.390;2023-02-12T07:51:35;95488.25;;;0.07;67.95
32243;BME280;18731;42.830;24.390;2023-02-12T07:54:01;95493.00;;;0.10;68.20
32243;BME280;18731;42.830;24.390;2023-02-12T07:56:30;95495.72;;;0.15;68.17
32243;BME280;18731;42.830;24.390;2023-02-12T07:58:58;95500.75;;;0.16;67.63
32243;BME280;18731;42.830;24.390;2023-02-12T08:01:30;95505.13;;;0.27;67.49
32243;BME280;18731;42.830;24.390;2023-02-12T08:04:00;95508.63;;;0.33;68.00
32243;BME280;18731;42.830;24.390;2023-02-12T08:06:29;95508.47;;;0.40;68.35
32243;BME280;18731;42.830;24.390;2023-02-12T08:08:58;95514.13;;;0.48;68.25
32243;BME280;18731;42.830;24.390;2023-02-12T08:11:24;95510.84;;;0.58;68.22
32243;BME280;18731;42.830;24.390;2023-02-12T08:13:51;95511.56;;;0.70;67.91
32243;BME280;18731;42.830;24.390;2023-02-12T08:16:19;95505.41;;;0.81;68.02
32243;BME280;18731;42.830;24.390;2023-02-12T08:18:46;95504.81;;;0.96;67.58
32243;BME280;18731;42.830;24.390;2023-02-12T08:21:19;95490.41;;;0.99;67.08
32243;BME280;18731;42.830;24.390;2023-02-12T08:23:45;95498.44;;;1.31;66.80
32243;BME280;18731;42.830;24.390;2023-02-12T08:26:18;95504.47;;;1.53;65.91
32243;BME280;18731;42.830;24.390;2023-02-12T08:28:46;95501.56;;;1.76;64.71
32243;BME280;18731;42.830;24.390;2023-02-12T08:31:17;95506.00;;;1.98;64.57
32243;BME280;18731;42.830;24.390;2023-02-12T08:33:48;95512.00;;;2.20;64.63
32243;BME280;18731;42.830;24.390;2023-02-12T08:36:17;95505.81;;;2.36;64.08
32243;BME280;18731;42.830;24.390;2023-02-12T08:38:44;95498.84;;;2.52;63.23
32243;BME280;18731;42.830;24.390;2023-02-12T08:41:22;95512.53;;;2.86;62.79
32243;BME280;18731;42.830;24.390;2023-02-12T08:43:49;95512.63;;;3.01;61.43
32243;BME280;18731;42.830;24.390;2023-02-12T08:46:18;95517.50;;;3.19;60.11
32243;BME280;18731;42.830;24.390;2023-02-12T08:48:44;95516.25;;;3.37;59.45
32243;BME280;18731;42.830;24.390;2023-02-12T08:51:18;95519.53;;;3.60;60.01
32243;BME280;18731;42.830;24.390;2023-02-12T08:53:47;95514.06;;;3.86;59.75
32243;BME280;18731;42.830;24.390;2023-02-12T08:56:15;95512.53;;;4.06;57.63
32243;BME280;18731;42.830;24.390;2023-02-12T08:58:42;95522.81;;;4.02;55.90
32243;BME280;18731;42.830;24.390;2023-02-12T09:01:13;95519.94;;;4.19;54.32
32243;BME280;18731;42.830;24.390;2023-02-12T09:03:40;95531.84;;;4.32;53.56
32243;BME280;18731;42.830;24.390;2023-02-12T09:06:07;95516.28;;;4.56;52.56
32243;BME280;18731;42.830;24.390;2023-02-12T09:08:33;95518.91;;;4.71;52.42
32243;BME280;18731;42.830;24.390;2023-02-12T09:11:03;95516.25;;;4.76;51.20
32243;BME280;18731;42.830;24.390;2023-02-12T09:13:30;95511.50;;;4.83;51.39
32243;BME280;18731;42.830;24.390;2023-02-12T09:15:55;95522.59;;;4.90;50.12
32243;BME280;18731;42.830;24.390;2023-02-12T09:18:21;95511.25;;;4.69;49.41
32243;BME280;18731;42.830;24.390;2023-02-12T09:20:46;95502.53;;;4.38;49.24
32243;BME280;18731;42.830;24.390;2023-02-12T09:23:13;95516.78;;;4.37;50.40
32243;BME280;18731;42.830;24.390;2023-02-12T09:25:41;95519.44;;;4.32;50.66
32243;BME280;18731;42.830;24.390;2023-02-12T09:28:10;95517.03;;;4.15;50.51
32243;BME280;18731;42.830;24.390;2023-02-12T09:30:36;95523.09;;;4.06;51.08
32243;BME280;18731;42.830;24.390;2023-02-12T09:33:03;95526.78;;;4.00;50.42
32243;BME280;18731;42.830;24.390;2023-02-12T09:35:29;95530.47;;;3.99;50.50
32243;BME280;18731;42.830;24.390;2023-02-12T09:37:54;95532.88;;;4.15;50.82
32243;BME280;18731;42.830;24.390;2023-02-12T09:40:23;95524.44;;;4.24;48.95
32243;BME280;18731;42.830;24.390;2023-02-12T09:45:34;95529.47;;;4.30;49.08
32243;BME280;18731;42.830;24.390;2023-02-12T09:50:50;95534.22;;;4.33;49.84
32243;BME280;18731;42.830;24.390;2023-02-12T09:53:24;95531.03;;;4.21;49.67
32243;BME280;18731;42.830;24.390;2023-02-12T09:55:50;95526.56;;;4.37;50.04
32243;BME280;18731;42.830;24.390;2023-02-12T09:58:41;95541.66;;;4.72;48.88
32243;BME280;18731;42.830;24.390;2023-02-12T10:01:15;95535.81;;;4.90;47.74
32243;BME280;18731;42.830;24.390;2023-02-12T10:03:42;95542.69;;;5.01;47.78
32243;BME280;18731;42.830;24.390;2023-02-12T10:06:16;95548.25;;;5.20;47.02
32243;BME280;18731;42.830;24.390;2023-02-12T10:09:12;95554.25;;;5.56;45.34
32243;BME280;18731;42.830;24.390;2023-02-12T10:11:52;95543.81;;;5.90;45.01
32243;BME280;18731;42.830;24.390;2023-02-12T10:17:13;95559.88;;;6.14;44.88
32243;BME280;18731;42.830;24.390;2023-02-12T10:22:23;95563.38;;;6.04;43.19
32243;BME280;18731;42.830;24.390;2023-02-12T10:25:30;95564.66;;;6.12;44.96
32243;BME280;18731;42.830;24.390;2023-02-12T10:27:50;95556.72;;;6.07;45.15
32243;BME280;18731;42.830;24.390;2023-02-12T10:30:26;95564.19;;;5.95;44.19
32243;BME280;18731;42.830;24.390;2023-02-12T10:33:04;95563.19;;;5.75;44.88
32243;BME280;18731;42.830;24.390;2023-02-12T10:35:32;95562.03;;;6.07;44.25
32243;BME280;18731;42.830;24.390;2023-02-12T10:38:13;95556.50;;;6.82;42.95
32243;BME280;18731;42.830;24.390;2023-02-12T10:40:43;95555.56;;;7.54;41.62
32243;BME280;18731;42.830;24.390;2023-02-12T10:43:11;95557.91;;;8.27;40.57
32243;BME280;18731;42.830;24.390;2023-02-12T10:45:39;95552.53;;;8.70;39.48
32243;BME280;18731;42.830;24.390;2023-02-12T10:53:35;95560.19;;;9.23;37.93
32243;BME280;18731;42.830;24.390;2023-02-12T10:58:41;95548.50;;;9.65;37.72
32243;BME280;18731;42.830;24.390;2023-02-12T11:03:51;95549.78;;;10.22;36.33
32243;BME280;18731;42.830;24.390;2023-02-12T11:06:22;95548.03;;;9.77;36.18
32243;BME280;18731;42.830;24.390;2023-02-12T11:08:50;95550.34;;;10.47;35.45
32243;BME280;18731;42.830;24.390;2023-02-12T11:14:37;95544.88;;;10.88;34.42
32243;BME280;18731;42.830;24.390;2023-02-12T11:17:02;95537.47;;;11.38;35.03
32243;BME280;18731;42.830;24.390;2023-02-12T11:19:29;95549.00;;;11.47;34.41
32243;BME280;18731;42.830;24.390;2023-02-12T11:22:09;95541.09;;;11.73;33.58
32243;BME280;18731;42.830;24.390;2023-02-12T11:24:36;95539.59;;;11.81;33.17
32243;BME280;18731;42.830;24.390;2023-02-12T11:29:41;95541.22;;;11.99;33.71
32243;BME280;18731;42.830;24.390;2023-02-12T11:32:08;95542.50;;;12.10;33.75
32243;BME280;18731;42.830;24.390;2023-02-12T11:34:39;95549.09;;;12.04;33.50
32243;BME280;18731;42.830;24.390;2023-02-12T11:37:14;95527.31;;;11.18;34.66
32243;BME280;18731;42.830;24.390;2023-02-12T11:39:45;95543.94;;;10.48;36.09
32243;BME280;18731;42.830;24.390;2023-02-12T11:42:23;95544.25;;;9.50;36.77
32243;BME280;18731;42.830;24.390;2023-02-12T11:44:53;95536.47;;;9.95;36.76
32243;BME280;18731;42.830;24.390;2023-02-12T11:47:39;95535.66;;;10.08;36.44
32243;BME280;18731;42.830;24.390;2023-02-12T11:50:21;95529.06;;;10.55;36.77
32243;BME280;18731;42.830;24.390;2023-02-12T11:52:50;95528.44;;;11.25;34.86
32243;BME280;18731;42.830;24.390;2023-02-12T11:55:25;95542.28;;;11.58;35.02
32243;BME280;18731;42.830;24.390;2023-02-12T11:58:02;95541.50;;;11.89;34.48
32243;BME280;18731;42.830;24.390;2023-02-12T12:00:36;95538.97;;;11.84;33.58
32243;BME280;18731;42.830;24.390;2023-02-12T12:06:30;95531.94;;;11.66;33.88
32243;BME280;18731;42.830;24.390;2023-02-12T12:09:20;95547.19;;;11.65;34.19
32243;BME280;18731;42.830;24.390;2023-02-12T12:15:05;95536.66;;;11.07;35.14
32243;BME280;18731;42.830;24.390;2023-02-12T12:18:02;95544.63;;;10.12;36.34
32243;BME280;18731;42.830;24.390;2023-02-12T12:20:55;95559.75;;;10.03;37.88
32243;BME280;18731;42.830;24.390;2023-02-12T12:23:43;95567.38;;;9.68;37.99
32243;BME280;18731;42.830;24.390;2023-02-12T12:26:22;95562.69;;;9.00;39.46
32243;BME280;18731;42.830;24.390;2023-02-12T12:29:12;95566.63;;;8.52;40.05
32243;BME280;18731;42.830;24.390;2023-02-12T12:31:45;95561.81;;;8.54;40.51
32243;BME280;18731;42.830;24.390;2023-02-12T12:34:17;95557.53;;;8.90;39.86
32243;BME280;18731;42.830;24.390;2023-02-12T12:37:04;95565.03;;;8.88;40.00
32243;BME280;18731;42.830;24.390;2023-02-12T13:01:47;95589.22;;;7.06;44.09
32243;BME280;18731;42.830;24.390;2023-02-12T13:10:28;95596.72;;;6.10;46.58
32243;BME280;18731;42.830;24.390;2023-02-12T13:15:44;95608.22;;;5.91;46.86
32243;BME280;18731;42.830;24.390;2023-02-12T13:24:19;95619.78;;;6.10;46.52
32243;BME280;18731;42.830;24.390;2023-02-12T13:26:55;95627.03;;;6.49;45.86
32243;BME280;18731;42.830;24.390;2023-02-12T13:29:34;95626.31;;;7.45;44.33
32243;BME280;18731;42.830;24.390;2023-02-12T13:32:13;95607.53;;;7.65;43.34
32243;BME280;18731;42.830;24.390;2023-02-12T13:34:41;95622.31;;;7.48;44.19
32243;BME280;18731;42.830;24.390;2023-02-12T13:37:14;95630.31;;;6.74;44.93
32243;BME280;18731;42.830;24.390;2023-02-12T13:39:46;95642.16;;;6.48;47.17
32243;BME280;18731;42.830;24.390;2023-02-12T13:42:15;95632.53;;;6.03;47.06
32243;BME280;18731;42.830;24.390;2023-02-12T13:56:17;95650.09;;;4.77;51.70
32243;BME280;18731;42.830;24.390;2023-02-12T13:58:52;95649.81;;;4.73;53.11
32243;BME280;18731;42.830;24.390;2023-02-12T14:01:50;95657.47;;;4.55;51.93
32243;BME280;18731;42.830;24.390;2023-02-12T14:04:24;95659.31;;;4.59;51.01
32243;BME280;18731;42.830;24.390;2023-02-12T14:07:05;95664.28;;;4.40;50.72
32243;BME280;18731;42.830;24.390;2023-02-12T14:14:47;95693.53;;;4.13;53.40
32243;BME280;18731;42.830;24.390;2023-02-12T14:19:58;95690.66;;;4.25;53.66
32243;BME280;18731;42.830;24.390;2023-02-12T14:25:00;95691.56;;;3.88;55.01
32243;BME280;18731;42.830;24.390;2023-02-12T14:27:43;95706.66;;;3.98;55.13
32243;BME280;18731;42.830;24.390;2023-02-12T14:35:34;95712.97;;;3.92;53.75
32243;BME280;18731;42.830;24.390;2023-02-12T14:38:01;95719.84;;;3.93;56.67
32243;BME280;18731;42.830;24.390;2023-02-12T14:40:36;95739.09;;;3.88;56.88
32243;BME280;18731;42.830;24.390;2023-02-12T14:43:33;95738.00;;;3.84;56.41
32243;BME280;18731;42.830;24.390;2023-02-12T14:48:53;95747.03;;;3.88;57.13
32243;BME280;18731;42.830;24.390;2023-02-12T14:53:46;95748.56;;;3.84;57.86
32243;BME280;18731;42.830;24.390;2023-02-12T14:56:18;95751.25;;;3.90;58.01
32243;BME280;18731;42.830;24.390;2023-02-12T14:58:45;95757.34;;;3.90;56.33
32243;BME280;18731;42.830;24.390;2023-02-12T15:01:11;95749.66;;;3.88;58.47
32243;BME280;18731;42.830;24.390;2023-02-12T15:03:42;95768.13;;;3.83;56.58
32243;BME280;18731;42.830;24.390;2023-02-12T15:06:21;95770.78;;;3.88;57.72
32243;BME280;18731;42.830;24.390;2023-02-12T15:08:57;95770.25;;;3.86;57.65
32243;BME280;18731;42.830;24.390;2023-02-12T15:11:40;95769.19;;;3.87;59.42
32243;BME280;18731;42.830;24.390;2023-02-12T15:16:51;95781.06;;;3.85;59.68
32243;BME280;18731;42.830;24.390;2023-02-12T15:22:02;95791.56;;;3.75;59.22
32243;BME280;18731;42.830;24.390;2023-02-12T15:24:27;95790.00;;;3.79;58.15
32243;BME280;18731;42.830;24.390;2023-02-12T15:26:55;95793.88;;;3.66;60.00
32243;BME280;18731;42.830;24.390;2023-02-12T15:29:42;95793.19;;;3.49;59.96
32243;BME280;18731;42.830;24.390;2023-02-12T15:32:18;95799.03;;;3.51;60.38
32243;BME280;18731;42.830;24.390;2023-02-12T15:34:48;95801.66;;;3.51;61.36
32243;BME280;18731;42.830;24.390;2023-02-12T15:37:25;95806.00;;;3.35;63.16
32243;BME280;18731;42.830;24.390;2023-02-12T15:39:55;95816.75;;;3.29;63.99
32243;BME280;18731;42.830;24.390;2023-02-12T15:42:33;95806.75;;;3.31;63.66
32243;BME280;18731;42.830;24.390;2023-02-12T15:45:16;95824.19;;;3.32;64.39
32243;BME280;18731;42.830;24.390;2023-02-12T15:47:44;95826.78;;;3.27;64.63
32243;BME280;18731;42.830;24.390;2023-02-12T15:50:14;95834.13;;;3.25;64.95
32243;BME280;18731;42.830;24.390;2023-02-12T15:52:43;95839.41;;;3.25;63.58
32243;BME280;18731;42.830;24.390;2023-02-12T15:55:18;95844.34;;;3.16;63.80
32243;BME280;18731;42.830;24.390;2023-02-12T15:57:58;95846.06;;;3.05;64.42
32243;BME280;18731;42.830;24.390;2023-02-12T16:00:30;95857.13;;;3.02;64.28
32243;BME280;18731;42.830;24.390;2023-02-12T16:02:56;95847.25;;;2.93;65.16
32243;BME280;18731;42.830;24.390;2023-02-12T16:05:22;95859.38;;;2.94;65.42
32243;BME280;18731;42.830;24.390;2023-02-12T16:07:49;95868.09;;;2.94;66.00
32243;BME280;18731;42.830;24.390;2023-02-12T16:10:17;95868.03;;;2.89;66.70
32243;BME280;18731;42.830;24.390;2023-02-12T16:12:44;95883.84;;;2.89;66.62
32243;BME280;18731;42.830;24.390;2023-02-12T16:15:30;95892.25;;;2.86;66.41
32243;BME280;18731;42.830;24.390;2023-02-12T16:17:58;95898.81;;;2.83;66.10
32243;BME280;18731;42.830;24.390;2023-02-12T16:20:29;95895.88;;;2.80;65.91
32243;BME280;18731;42.830;24.390;2023-02-12T16:22:56;95910.41;;;2.82;66.00
32243;BME280;18731;42.830;24.390;2023-02-12T16:25:25;95902.28;;;2.67;65.73
32243;BME280;18731;42.830;24.390;2023-02-12T16:27:59;95926.16;;;2.77;66.53
32243;BME280;18731;42.830;24.390;2023-02-12T16:30:28;95931.50;;;2.82;65.50
32243;BME280;18731;42.830;24.390;2023-02-12T16:32:55;95928.00;;;2.77;65.32
32243;BME280;18731;42.830;24.390;2023-02-12T16:35:42;95911.50;;;2.65;66.49
32243;BME280;18731;42.830;24.390;2023-02-12T16:43:45;95934.41;;;2.64;67.39
32243;BME280;18731;42.830;24.390;2023-02-12T16:46:13;95930.50;;;2.67;66.71
32243;BME280;18731;42.830;24.390;2023-02-12T16:48:46;95938.09;;;2.63;66.99
32243;BME280;18731;42.830;24.390;2023-02-12T16:51:27;95936.75;;;2.61;67.63
32243;BME280;18731;42.830;24.390;2023-02-12T16:53:57;95921.16;;;2.42;67.77
32243;BME280;18731;42.830;24.390;2023-02-12T16:56:26;95939.38;;;2.61;67.39
32243;BME280;18731;42.830;24.390;2023-02-12T16:58:54;95948.28;;;2.59;67.44
32243;BME280;18731;42.830;24.390;2023-02-12T17:01:29;95939.19;;;2.50;68.33
32243;BME280;18731;42.830;24.390;2023-02-12T17:03:57;95955.31;;;2.54;68.74
32243;BME280;18731;42.830;24.390;2023-02-12T17:06:26;95960.34;;;2.55;68.47
32243;BME280;18731;42.830;24.390;2023-02-12T17:08:52;95967.94;;;2.52;68.25
32243;BME280;18731;42.830;24.390;2023-02-12T17:11:18;95976.25;;;2.44;67.76
32243;BME280;18731;42.830;24.390;2023-02-12T17:13:45;95978.97;;;2.32;68.42
32243;BME280;18731;42.830;24.390;2023-02-12T17:16:12;95980.56;;;2.33;69.00
32243;BME280;18731;42.830;24.390;2023-02-12T17:18:38;95991.09;;;2.33;69.54
32243;BME280;18731;42.830;24.390;2023-02-12T17:21:08;95995.34;;;2.34;69.81
32243;BME280;18731;42.830;24.390;2023-02-12T17:23:39;95993.19;;;2.31;69.67
32243;BME280;18731;42.830;24.390;2023-02-12T17:26:05;95992.53;;;2.24;69.51
32243;BME280;18731;42.830;24.390;2023-02-12T17:28:32;95980.97;;;2.25;69.33
32243;BME280;18731;42.830;24.390;2023-02-12T17:30:58;95980.41;;;2.23;69.35
32243;BME280;18731;42.830;24.390;2023-02-12T17:33:27;95990.53;;;2.14;69.82
32243;BME280;18731;42.830;24.390;2023-02-12T17:35:53;95984.63;;;2.07;69.45
32243;BME280;18731;42.830;24.390;2023-02-12T17:38:18;95981.00;;;1.97;69.49
32243;BME280;18731;42.830;24.390;2023-02-12T17:40:44;95989.56;;;2.04;69.25
32243;BME280;18731;42.830;24.390;2023-02-12T17:43:10;95991.13;;;1.88;69.00
32243;BME280;18731;42.830;24.390;2023-02-12T17:45:40;96006.13;;;1.87;68.91
32243;BME280;18731;42.830;24.390;2023-02-12T17:48:08;96013.03;;;1.77;69.58
32243;BME280;18731;42.830;24.390;2023-02-12T17:50:34;96011.09;;;1.72;68.26
32243;BME280;18731;42.830;24.390;2023-02-12T17:52:59;96022.72;;;1.59;66.76
32243;BME280;18731;42.830;24.390;2023-02-12T17:55:25;96027.44;;;1.46;66.54
32243;BME280;18731;42.830;24.390;2023-02-12T17:57:52;96024.69;;;1.41;67.19
32243;BME280;18731;42.830;24.390;2023-02-12T18:00:20;96037.16;;;1.45;68.02
32243;BME280;18731;42.830;24.390;2023-02-12T18:02:46;96036.94;;;1.47;68.91
32243;BME280;18731;42.830;24.390;2023-02-12T18:05:12;96031.09;;;1.45;69.22
32243;BME280;18731;42.830;24.390;2023-02-12T18:07:37;96029.50;;;1.44;70.03
32243;BME280;18731;42.830;24.390;2023-02-12T18:10:05;96025.28;;;1.43;70.31
32243;BME280;18731;42.830;24.390;2023-02-12T18:12:31;96032.13;;;1.44;71.02
32243;BME280;18731;42.830;24.390;2023-02-12T18:14:59;96028.94;;;1.42;71.42
32243;BME280;18731;42.830;24.390;2023-02-12T18:17:25;96037.19;;;1.34;71.89
32243;BME280;18731;42.830;24.390;2023-02-12T18:19:51;96033.75;;;1.33;70.80
32243;BME280;18731;42.830;24.390;2023-02-12T18:22:17;96035.22;;;1.41;70.35
32243;BME280;18731;42.830;24.390;2023-02-12T18:24:43;96046.69;;;1.35;71.38
32243;BME280;18731;42.830;24.390;2023-02-12T18:27:10;96045.19;;;1.27;72.81
32243;BME280;18731;42.830;24.390;2023-02-12T18:29:36;96052.88;;;1.28;72.57
32243;BME280;18731;42.830;24.390;2023-02-12T18:32:02;96055.50;;;1.28;72.10
32243;BME280;18731;42.830;24.390;2023-02-12T18:34:28;96055.50;;;1.28;71.90
32243;BME280;18731;42.830;24.390;2023-02-12T18:36:53;96057.09;;;1.29;71.90
32243;BME280;18731;42.830;24.390;2023-02-12T18:39:19;96055.84;;;1.32;72.22
32243;BME280;18731;42.830;24.390;2023-02-12T18:41:44;96055.13;;;1.37;72.37
32243;BME280;18731;42.830;24.390;2023-02-12T18:44:12;96056.16;;;1.36;72.29
32243;BME280;18731;42.830;24.390;2023-02-12T18:46:38;96067.72;;;1.35;72.68
32243;BME280;18731;42.830;24.390;2023-02-12T18:49:04;96057.19;;;1.35;72.75
32243;BME280;18731;42.830;24.390;2023-02-12T18:51:30;96056.16;;;1.36;72.07
32243;BME280;18731;42.830;24.390;2023-02-12T18:54:03;96061.78;;;1.39;71.68
32243;BME280;18731;42.830;24.390;2023-02-12T18:56:31;96054.00;;;1.33;71.80
32243;BME280;18731;42.830;24.390;2023-02-12T18:59:01;96062.47;;;1.35;72.00
32243;BME280;18731;42.830;24.390;2023-02-12T19:01:28;96042.81;;;1.25;72.19
32243;BME280;18731;42.830;24.390;2023-02-12T19:03:56;96061.19;;;1.37;72.30
32243;BME280;18731;42.830;24.390;2023-02-12T19:06:23;96069.44;;;1.41;72.38
32243;BME280;18731;42.830;24.390;2023-02-12T19:08:56;96068.41;;;1.42;72.50
32243;BME280;18731;42.830;24.390;2023-02-12T19:11:23;96063.59;;;1.39;72.35
32243;BME280;18731;42.830;24.390;2023-02-12T19:13:48;96068.41;;;1.42;71.85
32243;BME280;18731;42.830;24.390;2023-02-12T19:16:16;96070.47;;;1.40;71.48